sensor_id;sensor_type;location;lat;lon;timestamp;temperature;humidity
5415;DHT22;2730;51.512;7.504;2022-08-01T05:05:18;19.20;99.90
5415;DHT22;2730;51.512;7.504;2022-08-01T05:07:46;19.20;99.90
5415;DHT22;2730;51.512;7.504;2022-08-01T05:10:13;19.30;99.90
5415;DHT22;2730;51.512;7.504;2022-08-01T05:12:40;19.40;99.90
5415;DHT22;2730;51.512;7.504;2022-08-01T05:15:07;19.40;99.90
5415;DHT22;2730;51.512;7.504;2022-08-01T05:17:34;19.30;99.90
5415;DHT22;2730;51.512;7.504;2022-08-01T05:20:01;19.30;99.90
5415;DHT22;2730;51.512;7.504;2022-08-01T05:22:29;19.30;99.90
5415;DHT22;2730;51.512;7.504;2022-08-01T05:24:56;19.30;99.90
5415;DHT22;2730;51.512;7.504;2022-08-01T05:27:25;19.30;99.90
5415;DHT22;2730;51.512;7.504;2022-08-01T05:29:52;19.40;99.90
5415;DHT22;2730;51.512;7.504;2022-08-01T05:32:18;19.40;99.90
5415;DHT22;2730;51.512;7.504;2022-08-01T05:34:45;19.50;99.90
5415;DHT22;2730;51.512;7.504;2022-08-01T05:37:12;19.40;99.90
5415;DHT22;2730;51.512;7.504;2022-08-01T05:39:40;19.40;99.90
5415;DHT22;2730;51.512;7.504;2022-08-01T05:42:07;19.30;99.90
5415;DHT22;2730;51.512;7.504;2022-08-01T05:44:34;19.30;99.90
5415;DHT22;2730;51.512;7.504;2022-08-01T05:47:01;19.30;99.90
5415;DHT22;2730;51.512;7.504;2022-08-01T05:49:29;19.40;99.90
5415;DHT22;2730;51.512;7.504;2022-08-01T05:51:56;19.50;99.90
5415;DHT22;2730;51.512;7.504;2022-08-01T05:54:22;19.50;99.90
5415;DHT22;2730;51.512;7.504;2022-08-01T05:56:51;19.40;99.90
5415;DHT22;2730;51.512;7.504;2022-08-01T05:59:18;19.50;99.90
5415;DHT22;2730;51.512;7.504;2022-08-01T06:01:46;19.40;99.90
5415;DHT22;2730;51.512;7.504;2022-08-01T06:04:12;19.40;99.90
5415;DHT22;2730;51.512;7.504;2022-08-01T06:06:39;19.30;99.90
5415;DHT22;2730;51.512;7.504;2022-08-01T06:09:06;19.30;99.90
5415;DHT22;2730;51.512;7.504;2022-08-01T06:11:33;19.40;99.90
5415;DHT22;2730;51.512;7.504;2022-08-01T06:14:01;19.40;99.90
5415;DHT22;2730;51.512;7.504;2022-08-01T06:16:28;19.40;99.90
5415;DHT22;2730;51.512;7.504;2022-08-01T06:18:55;19.40;99.90
5415;DHT22;2730;51.512;7.504;2022-08-01T06:21:22;19.40;99.90
5415;DHT22;2730;51.512;7.504;2022-08-01T06:23:48;19.50;99.90
5415;DHT22;2730;51.512;7.504;2022-08-01T06:26:17;19.80;99.90
5415;DHT22;2730;51.512;7.504;2022-08-01T06:28:44;20.30;99.90
5415;DHT22;2730;51.512;7.504;2022-08-01T06:31:13;20.40;99.90
5415;DHT22;2730;51.512;7.504;2022-08-01T06:33:41;20.30;99.90
5415;DHT22;2730;51.512;7.504;2022-08-01T06:36:08;20.10;99.90
5415;DHT22;2730;51.512;7.504;2022-08-01T06:38:35;20.00;99.90
5415;DHT22;2730;51.512;7.504;2022-08-01T06:41:02;19.90;99.90
5415;DHT22;2730;51.512;7.504;2022-08-01T06:43:29;19.90;99.90
5415;DHT22;2730;51.512;7.504;2022-08-01T06:45:56;19.80;99.90
5415;DHT22;2730;51.512;7.504;2022-08-01T06:48:25;19.80;99.90
5415;DHT22;2730;51.512;7.504;2022-08-01T06:50:52;19.80;99.90
5415;DHT22;2730;51.512;7.504;2022-08-01T06:53:33;19.90;99.90
5415;DHT22;2730;51.512;7.504;2022-08-01T06:56:00;20.20;99.90
5415;DHT22;2730;51.512;7.504;2022-08-01T06:58:27;20.40;99.90
5415;DHT22;2730;51.512;7.504;2022-08-01T07:00:54;20.50;99.90
5415;DHT22;2730;51.512;7.504;2022-08-01T07:03:21;20.80;99.90
5415;DHT22;2730;51.512;7.504;2022-08-01T07:05:49;21.10;99.90
5415;DHT22;2730;51.512;7.504;2022-08-01T07:08:16;21.10;99.90
5415;DHT22;2730;51.512;7.504;2022-08-01T07:10:43;21.30;99.90
5415;DHT22;2730;51.512;7.504;2022-08-01T07:13:10;21.40;99.90
5415;DHT22;2730;51.512;7.504;2022-08-01T07:15:37;21.50;99.90
5415;DHT22;2730;51.512;7.504;2022-08-01T07:18:04;21.50;99.90
5415;DHT22;2730;51.512;7.504;2022-08-01T07:20:31;21.40;99.90
5415;DHT22;2730;51.512;7.504;2022-08-01T07:22:59;21.50;99.90
5415;DHT22;2730;51.512;7.504;2022-08-01T07:25:26;21.70;99.90
5415;DHT22;2730;51.512;7.504;2022-08-01T07:27:53;22.20;99.90
5415;DHT22;2730;51.512;7.504;2022-08-01T07:30:20;22.30;99.90
5415;DHT22;2730;51.512;7.504;2022-08-01T07:32:47;22.80;99.90
5415;DHT22;2730;51.512;7.504;2022-08-01T07:35:14;23.80;99.90
5415;DHT22;2730;51.512;7.504;2022-08-01T07:37:41;25.00;99.90
5415;DHT22;2730;51.512;7.504;2022-08-01T07:40:10;26.50;99.90
5415;DHT22;2730;51.512;7.504;2022-08-01T07:42:37;27.10;99.90
5415;DHT22;2730;51.512;7.504;2022-08-01T07:45:05;27.00;99.90
5415;DHT22;2730;51.512;7.504;2022-08-01T07:47:32;27.50;99.90
5415;DHT22;2730;51.512;7.504;2022-08-01T07:50:00;27.90;99.90
5415;DHT22;2730;51.512;7.504;2022-08-01T07:52:27;27.30;99.90
5415;DHT22;2730;51.512;7.504;2022-08-01T07:54:55;27.40;99.90
5415;DHT22;2730;51.512;7.504;2022-08-01T07:57:23;27.70;99.90
5415;DHT22;2730;51.512;7.504;2022-08-01T07:59:50;27.10;99.90
5415;DHT22;2730;51.512;7.504;2022-08-01T08:02:17;27.30;99.90
5415;DHT22;2730;51.512;7.504;2022-08-01T08:04:44;27.00;99.90
5415;DHT22;2730;51.512;7.504;2022-08-01T08:07:11;25.90;99.90
5415;DHT22;2730;51.512;7.504;2022-08-01T08:09:38;25.30;99.90
5415;DHT22;2730;51.512;7.504;2022-08-01T08:12:05;25.60;99.90
5415;DHT22;2730;51.512;7.504;2022-08-01T08:14:34;25.60;99.90
5415;DHT22;2730;51.512;7.504;2022-08-01T08:17:01;25.50;99.90
5415;DHT22;2730;51.512;7.504;2022-08-01T08:19:28;26.60;99.90
5415;DHT22;2730;51.512;7.504;2022-08-01T08:21:55;27.30;99.90
5415;DHT22;2730;51.512;7.504;2022-08-01T08:24:21;28.20;99.90
5415;DHT22;2730;51.512;7.504;2022-08-01T08:26:50;28.30;99.90
5415;DHT22;2730;51.512;7.504;2022-08-01T08:29:18;28.80;99.90
5415;DHT22;2730;51.512;7.504;2022-08-01T08:31:46;28.00;99.90
5415;DHT22;2730;51.512;7.504;2022-08-01T08:34:13;26.20;99.90
5415;DHT22;2730;51.512;7.504;2022-08-01T08:36:40;24.70;99.90
5415;DHT22;2730;51.512;7.504;2022-08-01T08:39:07;23.60;99.90
5415;DHT22;2730;51.512;7.504;2022-08-01T08:41:35;23.70;99.90
5415;DHT22;2730;51.512;7.504;2022-08-01T08:44:03;25.00;99.90
5415;DHT22;2730;51.512;7.504;2022-08-01T08:46:31;26.20;99.90
5415;DHT22;2730;51.512;7.504;2022-08-01T08:49:03;27.10;99.90
5415;DHT22;2730;51.512;7.504;2022-08-01T08:51:31;27.80;99.90
5415;DHT22;2730;51.512;7.504;2022-08-01T08:54:00;28.30;99.90
5415;DHT22;2730;51.512;7.504;2022-08-01T08:56:28;28.40;99.90
5415;DHT22;2730;51.512;7.504;2022-08-01T08:59:00;28.40;99.90
5415;DHT22;2730;51.512;7.504;2022-08-01T09:01:28;28.40;99.90
5415;DHT22;2730;51.512;7.504;2022-08-01T09:03:55;26.90;99.90
5415;DHT22;2730;51.512;7.504;2022-08-01T09:06:24;25.40;99.90
5415;DHT22;2730;51.512;7.504;2022-08-01T09:08:51;24.90;99.90
5415;DHT22;2730;51.512;7.504;2022-08-01T09:11:18;24.50;99.90
5415;DHT22;2730;51.512;7.504;2022-08-01T09:14:01;25.70;99.90
5415;DHT22;2730;51.512;7.504;2022-08-01T09:16:29;27.10;99.90
5415;DHT22;2730;51.512;7.504;2022-08-01T09:19:06;27.90;99.90
5415;DHT22;2730;51.512;7.504;2022-08-01T09:21:35;28.30;99.90
5415;DHT22;2730;51.512;7.504;2022-08-01T09:24:02;27.70;99.90
5415;DHT22;2730;51.512;7.504;2022-08-01T09:26:33;27.10;99.90
5415;DHT22;2730;51.512;7.504;2022-08-01T09:29:03;25.80;99.90
5415;DHT22;2730;51.512;7.504;2022-08-01T09:31:40;24.80;99.90
5415;DHT22;2730;51.512;7.504;2022-08-01T09:34:07;24.10;99.90
5415;DHT22;2730;51.512;7.504;2022-08-01T09:36:48;24.10;99.90
5415;DHT22;2730;51.512;7.504;2022-08-01T09:39:18;24.10;99.90
5415;DHT22;2730;51.512;7.504;2022-08-01T09:41:45;24.70;99.90
5415;DHT22;2730;51.512;7.504;2022-08-01T09:44:13;25.50;99.90
5415;DHT22;2730;51.512;7.504;2022-08-01T09:46:51;26.10;99.90
5415;DHT22;2730;51.512;7.504;2022-08-01T09:49:28;26.50;99.90
5415;DHT22;2730;51.512;7.504;2022-08-01T09:51:57;26.00;99.90
5415;DHT22;2730;51.512;7.504;2022-08-01T09:54:29;25.60;99.90
5415;DHT22;2730;51.512;7.504;2022-08-01T09:57:08;25.00;99.90
5415;DHT22;2730;51.512;7.504;2022-08-01T09:59:35;24.80;99.90
5415;DHT22;2730;51.512;7.504;2022-08-01T10:02:03;25.60;99.90
5415;DHT22;2730;51.512;7.504;2022-08-01T10:04:30;26.40;99.90
5415;DHT22;2730;51.512;7.504;2022-08-01T10:07:04;26.50;99.90
5415;DHT22;2730;51.512;7.504;2022-08-01T10:09:33;26.60;99.90
5415;DHT22;2730;51.512;7.504;2022-08-01T10:12:01;27.10;99.90
5415;DHT22;2730;51.512;7.504;2022-08-01T10:14:29;27.80;99.90
5415;DHT22;2730;51.512;7.504;2022-08-01T10:16:57;29.00;99.90
5415;DHT22;2730;51.512;7.504;2022-08-01T10:19:26;28.90;99.90
5415;DHT22;2730;51.512;7.504;2022-08-01T10:21:54;29.70;99.90
5415;DHT22;2730;51.512;7.504;2022-08-01T10:24:24;30.40;99.90
5415;DHT22;2730;51.512;7.504;2022-08-01T10:26:53;30.60;99.80
5415;DHT22;2730;51.512;7.504;2022-08-01T10:29:23;30.80;99.20
5415;DHT22;2730;51.512;7.504;2022-08-01T10:31:51;30.30;98.90
5415;DHT22;2730;51.512;7.504;2022-08-01T10:34:19;28.30;99.90
5415;DHT22;2730;51.512;7.504;2022-08-01T10:36:47;27.60;99.90
5415;DHT22;2730;51.512;7.504;2022-08-01T10:39:14;27.90;99.90
5415;DHT22;2730;51.512;7.504;2022-08-01T10:41:42;28.50;99.90
5415;DHT22;2730;51.512;7.504;2022-08-01T10:44:09;28.90;99.90
5415;DHT22;2730;51.512;7.504;2022-08-01T10:46:38;28.40;99.90
5415;DHT22;2730;51.512;7.504;2022-08-01T10:49:08;27.50;99.90
5415;DHT22;2730;51.512;7.504;2022-08-01T10:51:37;25.70;99.90
5415;DHT22;2730;51.512;7.504;2022-08-01T10:54:06;24.70;99.90
5415;DHT22;2730;51.512;7.504;2022-08-01T10:56:39;24.10;99.90
5415;DHT22;2730;51.512;7.504;2022-08-01T10:59:08;23.70;99.90
5415;DHT22;2730;51.512;7.504;2022-08-01T11:01:35;23.50;99.90
5415;DHT22;2730;51.512;7.504;2022-08-01T11:04:07;23.40;99.90
5415;DHT22;2730;51.512;7.504;2022-08-01T11:06:48;23.10;99.90
5415;DHT22;2730;51.512;7.504;2022-08-01T11:09:24;23.00;99.90
5415;DHT22;2730;51.512;7.504;2022-08-01T11:12:02;23.30;99.90
5415;DHT22;2730;51.512;7.504;2022-08-01T11:14:33;23.40;99.90
5415;DHT22;2730;51.512;7.504;2022-08-01T11:17:30;23.40;99.90
5415;DHT22;2730;51.512;7.504;2022-08-01T11:20:04;23.30;99.90
5415;DHT22;2730;51.512;7.504;2022-08-01T11:22:31;23.10;99.90
5415;DHT22;2730;51.512;7.504;2022-08-01T11:24:58;23.30;99.90
5415;DHT22;2730;51.512;7.504;2022-08-01T11:27:28;23.40;99.90
5415;DHT22;2730;51.512;7.504;2022-08-01T11:30:23;23.40;99.90
5415;DHT22;2730;51.512;7.504;2022-08-01T11:32:53;23.50;99.90
5415;DHT22;2730;51.512;7.504;2022-08-01T11:35:21;24.00;99.90
5415;DHT22;2730;51.512;7.504;2022-08-01T11:37:51;24.10;99.90
5415;DHT22;2730;51.512;7.504;2022-08-01T11:40:19;23.90;99.90
5415;DHT22;2730;51.512;7.504;2022-08-01T11:42:46;24.00;99.90
5415;DHT22;2730;51.512;7.504;2022-08-01T11:45:14;24.00;99.90
5415;DHT22;2730;51.512;7.504;2022-08-01T11:47:47;23.80;99.90
5415;DHT22;2730;51.512;7.504;2022-08-01T11:50:30;23.80;99.90
5415;DHT22;2730;51.512;7.504;2022-08-01T11:52:58;23.60;99.90
5415;DHT22;2730;51.512;7.504;2022-08-01T11:55:26;23.30;99.90
5415;DHT22;2730;51.512;7.504;2022-08-01T11:57:59;23.20;99.90
5415;DHT22;2730;51.512;7.504;2022-08-01T12:00:26;23.30;99.90
5415;DHT22;2730;51.512;7.504;2022-08-01T12:02:59;23.40;99.90
5415;DHT22;2730;51.512;7.504;2022-08-01T12:05:27;23.50;99.90
5415;DHT22;2730;51.512;7.504;2022-08-01T12:07:55;23.80;99.90
5415;DHT22;2730;51.512;7.504;2022-08-01T12:10:23;24.10;99.90
5415;DHT22;2730;51.512;7.504;2022-08-01T12:12:52;24.10;99.90
5415;DHT22;2730;51.512;7.504;2022-08-01T12:15:21;23.90;99.90
5415;DHT22;2730;51.512;7.504;2022-08-01T12:17:50;23.90;99.90
5415;DHT22;2730;51.512;7.504;2022-08-01T12:20:22;24.10;99.90
5415;DHT22;2730;51.512;7.504;2022-08-01T12:22:53;24.30;99.90
5415;DHT22;2730;51.512;7.504;2022-08-01T12:25:20;24.70;99.90
5415;DHT22;2730;51.512;7.504;2022-08-01T12:27:48;24.30;99.90
5415;DHT22;2730;51.512;7.504;2022-08-01T12:30:17;24.10;99.90
5415;DHT22;2730;51.512;7.504;2022-08-01T12:32:45;24.40;99.90
5415;DHT22;2730;51.512;7.504;2022-08-01T12:35:14;24.30;99.90
5415;DHT22;2730;51.512;7.504;2022-08-01T12:37:45;24.30;99.90
5415;DHT22;2730;51.512;7.504;2022-08-01T12:40:14;24.10;99.90
5415;DHT22;2730;51.512;7.504;2022-08-01T12:42:43;23.90;99.90
5415;DHT22;2730;51.512;7.504;2022-08-01T12:45:14;23.80;99.90
5415;DHT22;2730;51.512;7.504;2022-08-01T12:47:42;23.90;99.90
5415;DHT22;2730;51.512;7.504;2022-08-01T12:50:12;24.10;99.90
5415;DHT22;2730;51.512;7.504;2022-08-01T12:52:39;24.10;99.90
5415;DHT22;2730;51.512;7.504;2022-08-01T12:55:11;24.20;99.90
5415;DHT22;2730;51.512;7.504;2022-08-01T12:57:41;24.20;99.90
5415;DHT22;2730;51.512;7.504;2022-08-01T13:00:19;24.20;99.90
5415;DHT22;2730;51.512;7.504;2022-08-01T13:02:47;23.80;99.90
5415;DHT22;2730;51.512;7.504;2022-08-01T13:05:14;23.80;99.90
5415;DHT22;2730;51.512;7.504;2022-08-01T13:07:48;23.60;99.90
5415;DHT22;2730;51.512;7.504;2022-08-01T13:10:26;23.80;99.90
5415;DHT22;2730;51.512;7.504;2022-08-01T13:12:54;24.00;99.90
5415;DHT22;2730;51.512;7.504;2022-08-01T13:15:27;24.40;99.90
5415;DHT22;2730;51.512;7.504;2022-08-01T13:17:58;24.60;99.90
5415;DHT22;2730;51.512;7.504;2022-08-01T13:20:30;24.50;99.90
5415;DHT22;2730;51.512;7.504;2022-08-01T13:23:14;24.20;99.90
5415;DHT22;2730;51.512;7.504;2022-08-01T13:25:54;23.80;99.90
5415;DHT22;2730;51.512;7.504;2022-08-01T13:28:22;23.60;99.90
5415;DHT22;2730;51.512;7.504;2022-08-01T13:30:54;23.60;99.90
5415;DHT22;2730;51.512;7.504;2022-08-01T13:33:22;23.80;99.90
5415;DHT22;2730;51.512;7.504;2022-08-01T13:35:50;24.00;99.90
5415;DHT22;2730;51.512;7.504;2022-08-01T13:38:18;24.10;99.90
5415;DHT22;2730;51.512;7.504;2022-08-01T13:40:45;24.20;99.90
5415;DHT22;2730;51.512;7.504;2022-08-01T13:43:13;24.40;99.90
5415;DHT22;2730;51.512;7.504;2022-08-01T13:45:40;24.70;99.90
5415;DHT22;2730;51.512;7.504;2022-08-01T13:48:08;24.80;99.90
5415;DHT22;2730;51.512;7.504;2022-08-01T13:50:35;24.80;99.90
5415;DHT22;2730;51.512;7.504;2022-08-01T13:53:02;24.90;99.90
5415;DHT22;2730;51.512;7.504;2022-08-01T13:55:29;25.00;99.90
5415;DHT22;2730;51.512;7.504;2022-08-01T13:57:56;25.00;99.90
5415;DHT22;2730;51.512;7.504;2022-08-01T14:00:24;25.20;99.90
5415;DHT22;2730;51.512;7.504;2022-08-01T14:02:51;25.00;99.90
5415;DHT22;2730;51.512;7.504;2022-08-01T14:05:18;24.80;99.90
5415;DHT22;2730;51.512;7.504;2022-08-01T14:07:45;24.80;99.90
5415;DHT22;2730;51.512;7.504;2022-08-01T14:10:11;24.60;99.90
5415;DHT22;2730;51.512;7.504;2022-08-01T14:12:38;24.30;99.90
5415;DHT22;2730;51.512;7.504;2022-08-01T14:15:06;24.10;99.90
5415;DHT22;2730;51.512;7.504;2022-08-01T14:17:35;24.40;99.90
5415;DHT22;2730;51.512;7.504;2022-08-01T14:20:03;24.60;99.90
5415;DHT22;2730;51.512;7.504;2022-08-01T14:22:30;24.70;99.90
5415;DHT22;2730;51.512;7.504;2022-08-01T14:24:57;24.60;99.90
5415;DHT22;2730;51.512;7.504;2022-08-01T14:27:24;24.70;99.90
5415;DHT22;2730;51.512;7.504;2022-08-01T14:29:51;24.90;99.90
5415;DHT22;2730;51.512;7.504;2022-08-01T14:32:18;25.00;99.90
5415;DHT22;2730;51.512;7.504;2022-08-01T14:34:46;24.60;99.90
5415;DHT22;2730;51.512;7.504;2022-08-01T14:37:13;24.20;99.90
5415;DHT22;2730;51.512;7.504;2022-08-01T14:39:40;24.20;99.90
5415;DHT22;2730;51.512;7.504;2022-08-01T14:42:07;24.20;99.90
5415;DHT22;2730;51.512;7.504;2022-08-01T14:44:34;24.10;99.90
5415;DHT22;2730;51.512;7.504;2022-08-01T14:47:01;24.30;99.90
5415;DHT22;2730;51.512;7.504;2022-08-01T14:49:28;24.20;99.90
5415;DHT22;2730;51.512;7.504;2022-08-01T14:51:56;24.20;99.90
5415;DHT22;2730;51.512;7.504;2022-08-01T14:54:23;24.30;99.90
5415;DHT22;2730;51.512;7.504;2022-08-01T14:56:50;24.40;99.90
5415;DHT22;2730;51.512;7.504;2022-08-01T14:59:18;24.10;99.90
5415;DHT22;2730;51.512;7.504;2022-08-01T15:01:45;24.10;99.90
5415;DHT22;2730;51.512;7.504;2022-08-01T15:04:12;24.20;99.90
5415;DHT22;2730;51.512;7.504;2022-08-01T15:06:39;24.10;99.90
5415;DHT22;2730;51.512;7.504;2022-08-01T15:09:07;23.90;99.90
5415;DHT22;2730;51.512;7.504;2022-08-01T15:11:34;24.00;99.90
5415;DHT22;2730;51.512;7.504;2022-08-01T15:14:01;24.10;99.90
5415;DHT22;2730;51.512;7.504;2022-08-01T15:16:46;24.30;99.90
5415;DHT22;2730;51.512;7.504;2022-08-01T15:19:13;24.20;99.90
5415;DHT22;2730;51.512;7.504;2022-08-01T15:21:42;23.90;99.90
5415;DHT22;2730;51.512;7.504;2022-08-01T15:24:11;23.80;99.90
5415;DHT22;2730;51.512;7.504;2022-08-01T15:26:38;23.80;99.90
5415;DHT22;2730;51.512;7.504;2022-08-01T15:29:05;23.90;99.90
5415;DHT22;2730;51.512;7.504;2022-08-01T15:31:32;24.00;99.90
5415;DHT22;2730;51.512;7.504;2022-08-01T15:33:59;24.10;99.90
5415;DHT22;2730;51.512;7.504;2022-08-01T15:36:26;24.00;99.90
5415;DHT22;2730;51.512;7.504;2022-08-01T15:38:52;23.70;99.90
5415;DHT22;2730;51.512;7.504;2022-08-01T15:41:22;23.70;99.90
5415;DHT22;2730;51.512;7.504;2022-08-01T15:43:50;23.50;99.90
5415;DHT22;2730;51.512;7.504;2022-08-01T15:46:20;23.60;99.90
5415;DHT22;2730;51.512;7.504;2022-08-01T15:48:47;23.50;99.90
5415;DHT22;2730;51.512;7.504;2022-08-01T15:51:14;23.60;99.90
5415;DHT22;2730;51.512;7.504;2022-08-01T15:53:41;23.60;99.90
5415;DHT22;2730;51.512;7.504;2022-08-01T15:56:08;23.80;99.90
5415;DHT22;2730;51.512;7.504;2022-08-01T15:58:36;23.80;99.90
5415;DHT22;2730;51.512;7.504;2022-08-01T16:01:03;23.80;99.90
5415;DHT22;2730;51.512;7.504;2022-08-01T16:03:30;23.80;99.90
5415;DHT22;2730;51.512;7.504;2022-08-01T16:05:56;23.70;99.90
5415;DHT22;2730;51.512;7.504;2022-08-01T16:08:23;23.70;99.90
5415;DHT22;2730;51.512;7.504;2022-08-01T16:10:50;23.70;99.90
5415;DHT22;2730;51.512;7.504;2022-08-01T16:13:17;23.70;99.90
5415;DHT22;2730;51.512;7.504;2022-08-01T16:15:45;23.60;99.90
5415;DHT22;2730;51.512;7.504;2022-08-01T16:18:12;23.60;99.90
5415;DHT22;2730;51.512;7.504;2022-08-01T16:20:40;23.40;99.90
5415;DHT22;2730;51.512;7.504;2022-08-01T16:23:08;23.20;99.90
5415;DHT22;2730;51.512;7.504;2022-08-01T16:25:35;23.10;99.90
5415;DHT22;2730;51.512;7.504;2022-08-01T16:28:02;23.30;99.90
5415;DHT22;2730;51.512;7.504;2022-08-01T16:30:29;23.40;99.90
5415;DHT22;2730;51.512;7.504;2022-08-01T16:32:57;23.60;99.90
5415;DHT22;2730;51.512;7.504;2022-08-01T16:35:24;23.60;99.90
5415;DHT22;2730;51.512;7.504;2022-08-01T16:37:51;23.60;99.90
5415;DHT22;2730;51.512;7.504;2022-08-01T16:40:18;23.50;99.90
5415;DHT22;2730;51.512;7.504;2022-08-01T16:42:45;23.60;99.90
5415;DHT22;2730;51.512;7.504;2022-08-01T16:45:12;23.70;99.90
5415;DHT22;2730;51.512;7.504;2022-08-01T16:47:40;23.70;99.90
5415;DHT22;2730;51.512;7.504;2022-08-01T16:50:08;23.50;99.90
5415;DHT22;2730;51.512;7.504;2022-08-01T16:52:35;23.60;99.90
5415;DHT22;2730;51.512;7.504;2022-08-01T16:55:02;23.60;99.90
5415;DHT22;2730;51.512;7.504;2022-08-01T16:57:29;23.70;99.90
5415;DHT22;2730;51.512;7.504;2022-08-01T17:00:02;23.50;99.90
5415;DHT22;2730;51.512;7.504;2022-08-01T17:02:29;23.50;99.90
5415;DHT22;2730;51.512;7.504;2022-08-01T17:04:56;23.40;99.90
5415;DHT22;2730;51.512;7.504;2022-08-01T17:07:24;23.40;99.90
5415;DHT22;2730;51.512;7.504;2022-08-01T17:09:51;23.50;99.90
5415;DHT22;2730;51.512;7.504;2022-08-01T17:12:18;23.50;99.90
5415;DHT22;2730;51.512;7.504;2022-08-01T17:14:45;23.50;99.90
5415;DHT22;2730;51.512;7.504;2022-08-01T17:17:12;23.50;99.90
5415;DHT22;2730;51.512;7.504;2022-08-01T17:19:39;23.40;99.90
5415;DHT22;2730;51.512;7.504;2022-08-01T17:22:06;23.50;99.90
5415;DHT22;2730;51.512;7.504;2022-08-01T17:24:35;23.50;99.90
5415;DHT22;2730;51.512;7.504;2022-08-01T17:27:02;23.60;99.90
5415;DHT22;2730;51.512;7.504;2022-08-01T17:29:29;23.50;99.90
5415;DHT22;2730;51.512;7.504;2022-08-01T17:31:56;23.50;99.90
5415;DHT22;2730;51.512;7.504;2022-08-01T17:34:23;23.40;99.90
5415;DHT22;2730;51.512;7.504;2022-08-01T17:36:50;23.30;99.90
5415;DHT22;2730;51.512;7.504;2022-08-01T17:39:17;23.30;99.90
5415;DHT22;2730;51.512;7.504;2022-08-01T17:41:45;23.20;99.90
5415;DHT22;2730;51.512;7.504;2022-08-01T17:44:12;23.00;99.90
5415;DHT22;2730;51.512;7.504;2022-08-01T17:46:39;23.00;99.90
5415;DHT22;2730;51.512;7.504;2022-08-01T17:49:06;23.00;99.90
5415;DHT22;2730;51.512;7.504;2022-08-01T17:51:32;23.10;99.90
5415;DHT22;2730;51.512;7.504;2022-08-01T17:53:59;22.90;99.90
5415;DHT22;2730;51.512;7.504;2022-08-01T17:56:26;23.00;99.90
5415;DHT22;2730;51.512;7.504;2022-08-01T17:58:55;22.90;99.90
5415;DHT22;2730;51.512;7.504;2022-08-01T18:01:22;22.80;99.90
5415;DHT22;2730;51.512;7.504;2022-08-01T18:03:50;22.70;99.90
5415;DHT22;2730;51.512;7.504;2022-08-01T18:06:17;22.70;99.90
5415;DHT22;2730;51.512;7.504;2022-08-01T18:08:45;22.60;99.90
5415;DHT22;2730;51.512;7.504;2022-08-01T18:11:12;22.50;99.90
5415;DHT22;2730;51.512;7.504;2022-08-01T18:13:39;22.40;99.90
5415;DHT22;2730;51.512;7.504;2022-08-01T18:16:07;22.30;99.90
5415;DHT22;2730;51.512;7.504;2022-08-01T18:18:37;22.20;99.90
5415;DHT22;2730;51.512;7.504;2022-08-01T18:21:05;22.10;99.90
5415;DHT22;2730;51.512;7.504;2022-08-01T18:23:32;22.10;99.90
5415;DHT22;2730;51.512;7.504;2022-08-01T18:26:00;22.00;99.90
5415;DHT22;2730;51.512;7.504;2022-08-01T18:28:27;21.90;99.90
5415;DHT22;2730;51.512;7.504;2022-08-01T18:30:54;21.90;99.90
5415;DHT22;2730;51.512;7.504;2022-08-01T18:33:22;21.90;99.90
5415;DHT22;2730;51.512;7.504;2022-08-01T18:35:49;21.80;99.90
5415;DHT22;2730;51.512;7.504;2022-08-01T18:38:16;21.80;99.90
5415;DHT22;2730;51.512;7.504;2022-08-01T18:40:43;21.70;99.90
5415;DHT22;2730;51.512;7.504;2022-08-01T18:43:11;21.70;99.90
5415;DHT22;2730;51.512;7.504;2022-08-01T18:45:37;21.60;99.90
5415;DHT22;2730;51.512;7.504;2022-08-01T18:48:05;21.50;99.90
5415;DHT22;2730;51.512;7.504;2022-08-01T18:50:33;21.50;99.90
5415;DHT22;2730;51.512;7.504;2022-08-01T18:53:00;21.40;99.90
5415;DHT22;2730;51.512;7.504;2022-08-01T18:55:27;21.30;99.90
5415;DHT22;2730;51.512;7.504;2022-08-01T18:57:53;21.30;99.90
5415;DHT22;2730;51.512;7.504;2022-08-01T19:00:20;21.30;99.90
5415;DHT22;2730;51.512;7.504;2022-08-01T19:02:47;21.30;99.90
5415;DHT22;2730;51.512;7.504;2022-08-01T19:05:14;21.20;99.90
5415;DHT22;2730;51.512;7.504;2022-08-01T19:07:42;21.20;99.90
5415;DHT22;2730;51.512;7.504;2022-08-01T19:10:09;21.10;99.90
5415;DHT22;2730;51.512;7.504;2022-08-01T19:12:36;21.00;99.90
5415;DHT22;2730;51.512;7.504;2022-08-01T19:15:04;21.00;99.90
5415;DHT22;2730;51.512;7.504;2022-08-01T19:17:31;20.90;99.90
5415;DHT22;2730;51.512;7.504;2022-08-01T19:19:58;20.90;99.90
5415;DHT22;2730;51.512;7.504;2022-08-01T19:22:25;20.90;99.90
5415;DHT22;2730;51.512;7.504;2022-08-01T19:24:53;20.90;99.90
5415;DHT22;2730;51.512;7.504;2022-08-01T19:27:20;20.90;99.90
5415;DHT22;2730;51.512;7.504;2022-08-01T19:29:51;20.90;99.90
5415;DHT22;2730;51.512;7.504;2022-08-01T19:32:20;21.00;99.90
5415;DHT22;2730;51.512;7.504;2022-08-01T19:34:48;21.00;99.90
5415;DHT22;2730;51.512;7.504;2022-08-01T19:37:21;21.00;99.90
5415;DHT22;2730;51.512;7.504;2022-08-01T19:39:48;21.00;99.90
5415;DHT22;2730;51.512;7.504;2022-08-01T19:42:17;21.00;99.90
5415;DHT22;2730;51.512;7.504;2022-08-01T19:44:44;21.00;99.90
5415;DHT22;2730;51.512;7.504;2022-08-01T19:47:12;20.90;99.90
5415;DHT22;2730;51.512;7.504;2022-08-01T19:49:40;20.90;99.90
5415;DHT22;2730;51.512;7.504;2022-08-01T19:52:08;20.90;99.90
5415;DHT22;2730;51.512;7.504;2022-08-01T19:54:37;20.80;99.90
5415;DHT22;2730;51.512;7.504;2022-08-01T19:57:07;20.70;99.90
5415;DHT22;2730;51.512;7.504;2022-08-01T19:59:36;20.70;99.90
5415;DHT22;2730;51.512;7.504;2022-08-01T20:02:04;20.60;99.90
5415;DHT22;2730;51.512;7.504;2022-08-01T20:04:32;20.50;99.90
5415;DHT22;2730;51.512;7.504;2022-08-01T20:06:59;20.50;99.90
5415;DHT22;2730;51.512;7.504;2022-08-01T20:09:27;20.40;99.90
5415;DHT22;2730;51.512;7.504;2022-08-01T20:11:54;20.40;99.90
5415;DHT22;2730;51.512;7.504;2022-08-01T20:14:23;20.30;99.90
5415;DHT22;2730;51.512;7.504;2022-08-01T20:16:53;20.20;99.90
5415;DHT22;2730;51.512;7.504;2022-08-01T20:19:21;20.20;99.90
5415;DHT22;2730;51.512;7.504;2022-08-01T20:21:50;20.10;99.90
5415;DHT22;2730;51.512;7.504;2022-08-01T20:24:20;20.00;99.90
5415;DHT22;2730;51.512;7.504;2022-08-01T20:26:49;19.90;99.90
5415;DHT22;2730;51.512;7.504;2022-08-01T20:29:17;19.80;99.90
5415;DHT22;2730;51.512;7.504;2022-08-01T20:31:48;19.80;99.90
5415;DHT22;2730;51.512;7.504;2022-08-01T20:34:20;19.70;99.90
5415;DHT22;2730;51.512;7.504;2022-08-01T20:36:48;19.60;99.90
5415;DHT22;2730;51.512;7.504;2022-08-01T20:39:17;19.60;99.90
5415;DHT22;2730;51.512;7.504;2022-08-01T20:41:46;19.50;99.90
5415;DHT22;2730;51.512;7.504;2022-08-01T20:44:14;19.50;99.90
5415;DHT22;2730;51.512;7.504;2022-08-01T20:46:41;19.40;99.90
5415;DHT22;2730;51.512;7.504;2022-08-01T20:49:11;19.30;99.90
5415;DHT22;2730;51.512;7.504;2022-08-01T20:51:39;19.30;99.90
5415;DHT22;2730;51.512;7.504;2022-08-01T20:54:06;19.30;99.90
5415;DHT22;2730;51.512;7.504;2022-08-01T20:56:37;19.20;99.90
5415;DHT22;2730;51.512;7.504;2022-08-01T20:59:09;19.20;99.90
5415;DHT22;2730;51.512;7.504;2022-08-01T21:01:44;19.20;99.90
5415;DHT22;2730;51.512;7.504;2022-08-01T21:07:05;19.00;99.90
5415;DHT22;2730;51.512;7.504;2022-08-01T21:09:36;18.90;99.90
5415;DHT22;2730;51.512;7.504;2022-08-01T21:12:05;18.80;99.90
5415;DHT22;2730;51.512;7.504;2022-08-01T21:14:42;18.70;99.90
5415;DHT22;2730;51.512;7.504;2022-08-01T21:17:17;18.70;99.90